Time;durP1;ratioP1;P1;durP2;ratioP2;P2;SDS_P1;SDS_P2;PMS_P1;PMS_P2;Temp;Humidity;BMP_temperature;BMP_pressure;BME280_temperature;BME280_humidity;BME280_pressure;Samples;Min_cycle;Max_cycle;Signal;HPM_P1;HPM_P2
2021/05/04 00:02:13;;;;;;;1.55;0.80;;;22.10;46.40;;;;;;5110414;28;20044;-40
2021/05/04 00:04:40;;;;;;;2.13;1.00;;;22.10;46.40;;;;;;5109859;28;20104;-40
2021/05/04 00:07:06;;;;;;;1.50;1.00;;;22.10;46.40;;;;;;5096924;28;20108;-40
2021/05/04 00:09:34;;;;;;;0.98;0.88;;;22.00;46.40;;;;;;5110673;28;20396;-41
2021/05/04 00:12:00;;;;;;;1.80;1.10;;;22.10;46.40;;;;;;5109292;28;20043;-40
2021/05/04 00:14:28;;;;;;;1.98;0.95;;;22.10;46.40;;;;;;5110031;28;20183;-41
2021/05/04 00:16:54;;;;;;;1.33;0.90;;;22.10;46.40;;;;;;5110581;28;20044;-40
2021/05/04 00:19:22;;;;;;;1.25;0.85;;;22.10;46.40;;;;;;5109841;28;20480;-41
2021/05/04 00:21:49;;;;;;;3.33;0.98;;;22.00;46.40;;;;;;5110304;28;20036;-40
2021/05/04 00:24:16;;;;;;;1.50;1.10;;;22.00;46.30;;;;;;5109945;28;20631;-42
2021/05/04 00:26:43;;;;;;;1.90;1.00;;;22.00;46.30;;;;;;5109918;28;20048;-41
2021/05/04 00:29:09;;;;;;;1.50;0.82;;;22.00;46.30;;;;;;5109816;28;20453;-40
2021/05/04 00:31:37;;;;;;;1.25;0.90;;;22.10;46.40;;;;;;5109743;28;20047;-41
2021/05/04 00:34:04;;;;;;;1.08;0.98;;;22.10;46.40;;;;;;5108625;28;21501;-40
2021/05/04 00:36:30;;;;;;;1.33;0.77;;;22.10;46.40;;;;;;5112166;28;20070;-41
2021/05/04 00:38:57;;;;;;;1.05;0.95;;;22.10;46.40;;;;;;5112475;28;20043;-43
2021/05/04 00:41:24;;;;;;;1.20;0.90;;;22.00;46.30;;;;;;5103196;28;20051;-41
2021/05/04 00:43:51;;;;;;;0.98;0.80;;;22.00;46.30;;;;;;5113691;28;20049;-42
2021/05/04 00:46:18;;;;;;;3.08;1.00;;;22.00;46.30;;;;;;5113202;28;20051;-41
2021/05/04 00:48:44;;;;;;;1.55;0.88;;;22.10;46.40;;;;;;5114120;28;20130;-42
2021/05/04 00:51:11;;;;;;;0.95;0.80;;;22.00;46.30;;;;;;5113797;28;20143;-41
2021/05/04 00:53:38;;;;;;;1.10;0.70;;;22.00;46.30;;;;;;5113425;27;20051;-43
2021/05/04 00:56:06;;;;;;;1.23;0.90;;;22.00;46.30;;;;;;5113790;28;20039;-43
2021/05/04 00:58:34;;;;;;;1.58;0.93;;;22.00;46.30;;;;;;5112185;28;20042;-41
2021/05/04 01:01:02;;;;;;;1.90;1.02;;;22.00;46.20;;;;;;5113805;28;20074;-43
2021/05/04 01:03:29;;;;;;;1.67;1.20;;;22.00;46.20;;;;;;5113916;27;20089;-40
2021/05/04 01:05:56;;;;;;;1.50;0.80;;;22.00;46.20;;;;;;5112616;28;20060;-41
2021/05/04 01:08:23;;;;;;;1.27;1.00;;;22.00;46.20;;;;;;5113002;28;20100;-41
2021/05/04 01:10:49;;;;;;;1.30;1.00;;;22.00;46.20;;;;;;5112882;28;20050;-41
2021/05/04 01:13:16;;;;;;;0.75;0.65;;;22.00;46.20;;;;;;5112172;28;20056;-42
2021/05/04 01:15:43;;;;;;;2.22;0.82;;;22.00;46.20;;;;;;5114301;28;20046;-40
2021/05/04 01:18:10;;;;;;;1.20;0.90;;;22.00;46.20;;;;;;5112415;28;20048;-41
2021/05/04 01:20:37;;;;;;;1.98;1.10;;;22.00;46.20;;;;;;5113471;28;20105;-41
2021/05/04 01:23:05;;;;;;;1.80;0.60;;;22.00;46.20;;;;;;5113473;28;20083;-40
2021/05/04 01:25:31;;;;;;;2.28;0.95;;;22.00;46.20;;;;;;5111625;28;20044;-40
2021/05/04 01:27:58;;;;;;;1.15;0.90;;;22.00;46.20;;;;;;5104092;27;20047;-42
2021/05/04 01:30:25;;;;;;;1.48;1.13;;;22.00;46.20;;;;;;5112650;28;20093;-41
2021/05/04 01:32:51;;;;;;;2.97;0.98;;;22.00;46.20;;;;;;5111740;28;20073;-41
2021/05/04 01:35:18;;;;;;;1.27;0.95;;;22.00;46.20;;;;;;5113709;27;20056;-41
2021/05/04 01:37:46;;;;;;;1.20;1.00;;;22.00;46.20;;;;;;5112087;28;20487;-40
2021/05/04 01:40:14;;;;;;;2.95;0.90;;;22.00;46.20;;;;;;5113103;28;20035;-42
2021/05/04 01:42:45;;;;;;;0.85;0.80;;;22.00;46.20;;;;;;5113487;28;20051;-40
2021/05/04 01:45:13;;;;;;;1.63;1.00;;;22.00;46.20;;;;;;5111380;28;20396;-41
2021/05/04 01:47:41;;;;;;;1.13;1.02;;;22.00;46.20;;;;;;5111942;28;20126;-40
2021/05/04 01:50:09;;;;;;;1.27;0.90;;;22.00;46.20;;;;;;5100942;28;20059;-41
2021/05/04 01:52:36;;;;;;;1.77;0.90;;;22.00;46.20;;;;;;5111100;28;20044;-42
2021/05/04 01:55:04;;;;;;;1.00;0.80;;;22.00;46.20;;;;;;5101888;28;20047;-40
2021/05/04 01:57:30;;;;;;;1.20;0.80;;;22.00;46.20;;;;;;5111483;28;20051;-40
2021/05/04 01:59:57;;;;;;;1.67;1.00;;;22.00;46.20;;;;;;5111710;28;20040;-41
2021/05/04 02:02:24;;;;;;;1.85;1.10;;;22.00;46.20;;;;;;5112351;28;20047;-40
2021/05/04 02:04:54;;;;;;;1.83;0.82;;;22.00;46.20;;;;;;5099241;28;20079;-40
2021/05/04 02:07:21;;;;;;;1.40;0.90;;;22.00;46.20;;;;;;5111086;28;20435;-41
2021/05/04 02:09:48;;;;;;;1.10;1.00;;;22.00;46.20;;;;;;5112315;28;20514;-42
2021/05/04 02:12:14;;;;;;;1.35;1.00;;;22.00;46.20;;;;;;5110132;28;20093;-41
2021/05/04 02:14:41;;;;;;;1.38;0.88;;;22.00;46.20;;;;;;5112320;28;20456;-41
2021/05/04 02:17:08;;;;;;;1.45;0.90;;;22.00;46.20;;;;;;5111837;28;20135;-40
2021/05/04 02:19:37;;;;;;;1.33;0.80;;;22.00;46.20;;;;;;5110679;28;20044;-40
2021/05/04 02:22:05;;;;;;;1.08;0.98;;;22.00;46.20;;;;;;5111959;28;20407;-40
2021/05/04 02:24:31;;;;;;;1.33;0.90;;;22.00;46.20;;;;;;5110904;28;20059;-41
2021/05/04 02:26:58;;;;;;;1.15;0.90;;;22.00;46.20;;;;;;5111575;28;20056;-41
2021/05/04 02:29:25;;;;;;;1.00;0.90;;;22.00;46.10;;;;;;5100656;28;20047;-41
2021/05/04 02:31:51;;;;;;;3.38;1.05;;;22.00;46.10;;;;;;5110424;28;20074;-41
2021/05/04 02:34:19;;;;;;;1.52;0.90;;;22.00;46.10;;;;;;5111727;28;20039;-40
2021/05/04 02:36:45;;;;;;;1.25;0.98;;;22.00;46.20;;;;;;5111169;28;20048;-43
2021/05/04 02:39:12;;;;;;;1.15;0.90;;;22.00;46.10;;;;;;5111087;28;20512;-41
2021/05/04 02:41:38;;;;;;;1.40;0.95;;;22.00;46.10;;;;;;5112229;28;20690;-41
2021/05/04 02:44:06;;;;;;;1.48;0.82;;;22.00;46.10;;;;;;5110528;28;20043;-41
2021/05/04 02:46:34;;;;;;;1.58;1.00;;;22.00;46.10;;;;;;5111036;28;20047;-41
2021/05/04 02:49:01;;;;;;;1.85;1.10;;;22.00;46.10;;;;;;5111450;28;20043;-40
2021/05/04 02:51:27;;;;;;;1.33;0.95;;;22.00;46.10;;;;;;5110404;28;20514;-40
2021/05/04 02:53:55;;;;;;;1.92;1.10;;;22.00;46.10;;;;;;5110580;28;20092;-41
2021/05/04 02:56:22;;;;;;;1.38;0.85;;;22.00;46.10;;;;;;5110838;28;20075;-41
2021/05/04 02:58:48;;;;;;;1.25;0.85;;;22.00;46.10;;;;;;5109610;28;20086;-40
2021/05/04 03:01:15;;;;;;;1.10;0.90;;;22.00;46.10;;;;;;5111525;28;20048;-40
2021/05/04 03:03:42;;;;;;;2.15;1.20;;;22.00;46.10;;;;;;5110264;28;20035;-41
2021/05/04 03:06:09;;;;;;;1.27;0.90;;;22.00;46.10;;;;;;5109876;28;20054;-40
2021/05/04 03:08:35;;;;;;;1.38;0.95;;;22.00;46.20;;;;;;5110742;28;20100;-41
2021/05/04 03:11:02;;;;;;;0.82;0.70;;;22.00;46.10;;;;;;5109532;28;20040;-40
2021/05/04 03:13:32;;;;;;;1.25;1.00;;;22.00;46.10;;;;;;5110021;28;20108;-40
2021/05/04 03:15:59;;;;;;;1.88;1.00;;;22.00;46.10;;;;;;5111079;28;20043;-42
2021/05/04 03:18:26;;;;;;;1.00;0.80;;;22.00;46.10;;;;;;5099237;28;20043;-40
2021/05/04 03:20:53;;;;;;;1.35;1.00;;;22.00;46.10;;;;;;5101584;28;20053;-40
2021/05/04 03:23:21;;;;;;;1.67;1.05;;;22.00;46.10;;;;;;5110195;28;20047;-41
2021/05/04 03:25:49;;;;;;;1.83;0.68;;;22.00;46.10;;;;;;5110266;28;20096;-40
2021/05/04 03:28:17;;;;;;;1.55;1.30;;;22.00;46.10;;;;;;5111309;28;20056;-40
2021/05/04 03:30:44;;;;;;;0.82;0.80;;;21.90;46.00;;;;;;5109388;28;20051;-40
2021/05/04 03:33:11;;;;;;;1.48;0.70;;;22.00;46.10;;;;;;5110891;28;20148;-40
2021/05/04 03:35:38;;;;;;;1.60;1.10;;;21.90;46.00;;;;;;5110771;28;20134;-41
2021/05/04 03:38:05;;;;;;;0.95;0.85;;;22.00;46.00;;;;;;5109949;28;20039;-41
2021/05/04 03:40:32;;;;;;;1.92;0.98;;;21.90;46.00;;;;;;5111330;28;20043;-41
2021/05/04 03:42:59;;;;;;;1.55;0.90;;;21.90;46.00;;;;;;5110095;28;20055;-40
2021/05/04 03:45:26;;;;;;;0.80;0.80;;;21.90;46.00;;;;;;5109855;28;20040;-43
2021/05/04 03:47:53;;;;;;;1.02;0.80;;;21.90;46.00;;;;;;5101292;28;20128;-41
2021/05/04 03:50:25;;;;;;;1.60;1.20;;;21.90;46.00;;;;;;5109690;28;20106;-41
2021/05/04 03:52:53;;;;;;;2.28;1.13;;;21.90;46.00;;;;;;5109680;28;20070;-41
2021/05/04 03:55:20;;;;;;;1.17;0.93;;;22.00;46.00;;;;;;5110363;28;20047;-40
2021/05/04 03:57:48;;;;;;;1.25;0.75;;;22.00;46.00;;;;;;5109165;28;20065;-40
2021/05/04 04:00:16;;;;;;;1.27;0.95;;;22.00;46.00;;;;;;5109844;28;20043;-40
2021/05/04 04:02:42;;;;;;;1.17;0.82;;;21.90;45.90;;;;;;5081411;28;20039;-40
2021/05/04 04:05:10;;;;;;;1.63;0.90;;;22.00;46.00;;;;;;5097403;28;20101;-40
2021/05/04 04:07:37;;;;;;;1.52;1.20;;;21.90;45.90;;;;;;5110021;28;20071;-40
2021/05/04 04:10:04;;;;;;;1.15;1.00;;;21.90;45.90;;;;;;5080930;28;20040;-40
2021/05/04 04:12:31;;;;;;;1.30;1.00;;;21.90;45.90;;;;;;5112475;28;20071;-40
2021/05/04 04:14:58;;;;;;;1.70;1.00;;;21.90;45.90;;;;;;5114864;28;20059;-42
2021/05/04 04:17:25;;;;;;;2.33;1.20;;;21.90;45.90;;;;;;5100806;28;20400;-40
2021/05/04 04:19:51;;;;;;;1.45;1.00;;;22.00;46.00;;;;;;5114517;28;20487;-40
2021/05/04 04:22:18;;;;;;;1.10;0.95;;;21.90;45.90;;;;;;5114191;28;20098;-40
2021/05/04 04:24:44;;;;;;;1.10;0.85;;;21.90;45.90;;;;;;5112058;28;20100;-41
2021/05/04 04:27:11;;;;;;;1.70;1.10;;;21.90;45.90;;;;;;5104422;27;20100;-40
2021/05/04 04:29:39;;;;;;;2.38;1.13;;;22.00;46.00;;;;;;5112763;28;20047;-43
2021/05/04 04:32:05;;;;;;;1.15;0.90;;;21.90;45.90;;;;;;5113304;28;20047;-41
2021/05/04 04:34:32;;;;;;;1.63;1.20;;;21.90;45.90;;;;;;5114423;28;20079;-41
2021/05/04 04:36:59;;;;;;;1.23;1.10;;;22.00;46.00;;;;;;5112649;28;20452;-40
2021/05/04 04:39:25;;;;;;;1.95;0.95;;;22.00;46.00;;;;;;5113746;28;20502;-40
2021/05/04 04:41:52;;;;;;;1.50;1.05;;;21.90;45.90;;;;;;5114296;28;20070;-41
2021/05/04 04:44:19;;;;;;;1.13;0.93;;;22.00;46.00;;;;;;5111942;28;20131;-40
2021/05/04 04:46:46;;;;;;;1.60;0.90;;;21.90;45.90;;;;;;5104039;28;20141;-41
2021/05/04 04:49:16;;;;;;;1.65;1.05;;;22.00;46.00;;;;;;5113260;28;20059;-41
2021/05/04 04:51:44;;;;;;;1.77;1.33;;;21.90;45.80;;;;;;5112715;27;20051;-41
2021/05/04 04:54:11;;;;;;;1.45;1.05;;;21.90;45.80;;;;;;5114005;28;20081;-41
2021/05/04 04:56:38;;;;;;;2.08;1.20;;;22.00;45.90;;;;;;5113717;28;20046;-41
2021/05/04 04:59:05;;;;;;;1.00;0.70;;;21.90;45.80;;;;;;5112884;27;20044;-40
2021/05/04 05:01:33;;;;;;;1.20;0.98;;;22.00;45.90;;;;;;5113449;28;20134;-41
2021/05/04 05:04:01;;;;;;;1.15;1.00;;;21.90;45.80;;;;;;5111724;28;20126;-40
2021/05/04 05:06:29;;;;;;;3.00;1.10;;;22.00;45.90;;;;;;5113136;28;20054;-41
2021/05/04 05:08:55;;;;;;;1.50;1.10;;;22.00;45.80;;;;;;5112749;28;20483;-41
2021/05/04 05:11:22;;;;;;;1.75;1.23;;;22.00;45.80;;;;;;5112689;27;20054;-40
2021/05/04 05:13:49;;;;;;;1.25;0.90;;;22.00;45.80;;;;;;5113247;28;20062;-40
2021/05/04 05:16:18;;;;;;;1.80;1.10;;;22.00;45.80;;;;;;5112379;28;20096;-41
2021/05/04 05:18:51;;;;;;;1.33;0.95;;;22.00;45.80;;;;;;5111725;28;20050;-41
2021/05/04 05:21:19;;;;;;;1.35;1.00;;;22.00;45.80;;;;;;5113634;28;20078;-41
2021/05/04 05:23:46;;;;;;;1.13;1.00;;;22.00;45.80;;;;;;5099008;28;20069;-40
2021/05/04 05:26:14;;;;;;;1.00;0.80;;;22.00;45.80;;;;;;5103068;28;20442;-42
2021/05/04 05:28:41;;;;;;;2.25;0.88;;;22.00;45.70;;;;;;5112737;28;20075;-43
2021/05/04 05:31:07;;;;;;;1.20;1.05;;;22.00;45.70;;;;;;5100148;28;20104;-42
2021/05/04 05:33:35;;;;;;;1.33;0.80;;;22.00;45.70;;;;;;5112768;28;20069;-43
2021/05/04 05:36:02;;;;;;;1.75;0.90;;;22.00;45.70;;;;;;5111889;28;20051;-46
2021/05/04 05:38:35;;;;;;;1.60;1.20;;;22.00;45.70;;;;;;5103028;28;20130;-43
2021/05/04 05:41:02;;;;;;;1.00;0.90;;;22.00;45.60;;;;;;5113166;27;20040;-43
2021/05/04 05:43:29;;;;;;;1.20;0.98;;;22.00;45.70;;;;;;5100356;28;20166;-42
2021/05/04 05:45:55;;;;;;;1.10;0.77;;;22.00;45.70;;;;;;5112079;28;20117;-43
2021/05/04 05:48:22;;;;;;;1.58;1.13;;;22.00;45.70;;;;;;5112518;28;20097;-41
2021/05/04 05:50:48;;;;;;;1.77;0.80;;;22.00;45.60;;;;;;5112579;27;20055;-43
2021/05/04 05:53:15;;;;;;;1.13;0.88;;;22.00;45.70;;;;;;5112030;27;20071;-44
2021/05/04 05:55:42;;;;;;;1.20;1.10;;;22.00;45.70;;;;;;5112360;28;20449;-44
2021/05/04 05:58:08;;;;;;;1.25;1.00;;;22.00;45.70;;;;;;5110790;28;20058;-42
2021/05/04 06:00:35;;;;;;;1.42;1.00;;;22.00;45.70;;;;;;5112233;28;20048;-43
2021/05/04 06:03:04;;;;;;;1.45;1.13;;;22.00;45.70;;;;;;5111643;28;20044;-41
2021/05/04 06:05:31;;;;;;;1.17;0.85;;;22.00;45.70;;;;;;5110679;28;20063;-41
2021/05/04 06:07:59;;;;;;;1.65;0.90;;;22.00;45.70;;;;;;5111670;28;20082;-43
2021/05/04 06:10:26;;;;;;;1.25;0.98;;;22.00;45.70;;;;;;5109466;28;20092;-45
2021/05/04 06:13:06;;;;;;;1.10;0.93;;;22.00;45.80;;;;;;5111691;28;20100;-46
2021/05/04 06:15:39;;;;;;;1.20;1.10;;;22.00;45.80;;;;;;5135254;27;20039;-43
2021/05/04 06:18:07;;;;;;;1.87;0.90;;;22.00;45.80;;;;;;5110850;28;20130;-45
2021/05/04 06:20:34;;;;;;;1.95;1.08;;;22.00;45.80;;;;;;5101394;28;20330;-42
2021/05/04 06:23:02;;;;;;;1.65;1.00;;;22.00;45.80;;;;;;5112234;28;20109;-45
2021/05/04 06:25:29;;;;;;;1.25;0.90;;;22.00;45.90;;;;;;5109656;28;20056;-42
2021/05/04 06:28:00;;;;;;;1.13;0.90;;;22.00;45.90;;;;;;5111523;28;20131;-42
2021/05/04 06:30:28;;;;;;;1.40;1.02;;;22.00;45.80;;;;;;5110966;28;20051;-43
2021/05/04 06:32:55;;;;;;;0.93;0.80;;;22.00;45.90;;;;;;5111695;27;20449;-46
2021/05/04 06:35:22;;;;;;;1.42;0.90;;;22.00;45.90;;;;;;5111489;28;20135;-44
2021/05/04 06:37:48;;;;;;;1.13;1.00;;;22.00;45.90;;;;;;5111142;27;20097;-44
2021/05/04 06:40:15;;;;;;;1.17;0.88;;;22.00;45.90;;;;;;5112039;27;20433;-44
2021/05/04 06:42:42;;;;;;;1.15;0.93;;;22.00;45.90;;;;;;5112024;28;20096;-45
2021/05/04 06:45:09;;;;;;;1.85;1.00;;;22.00;45.90;;;;;;5111177;27;20047;-42
2021/05/04 06:47:36;;;;;;;1.30;1.00;;;22.00;45.90;;;;;;5111867;28;20097;-46
2021/05/04 06:50:05;;;;;;;1.70;1.08;;;22.00;45.90;;;;;;5111124;28;20053;-44
2021/05/04 06:52:32;;;;;;;2.25;1.10;;;22.10;46.00;;;;;;5110285;28;20052;-45
2021/05/04 06:54:59;;;;;;;1.05;0.93;;;22.00;45.80;;;;;;5111279;28;20048;-44
2021/05/04 06:57:26;;;;;;;1.00;0.80;;;22.00;45.80;;;;;;5109835;28;20062;-44
2021/05/04 06:59:52;;;;;;;1.60;0.98;;;22.00;45.80;;;;;;5111360;27;20101;-42
2021/05/04 07:02:19;;;;;;;1.40;1.00;;;22.10;45.90;;;;;;5111103;28;20054;-43
2021/05/04 07:04:46;;;;;;;1.73;1.20;;;22.00;45.80;;;;;;5110140;28;20051;-48
2021/05/04 07:07:13;;;;;;;1.45;1.00;;;22.00;45.80;;;;;;5111127;27;20043;-42
2021/05/04 07:09:41;;;;;;;1.48;1.10;;;22.00;45.80;;;;;;5110324;28;20054;-49
2021/05/04 07:12:08;;;;;;;1.40;1.10;;;22.00;45.70;;;;;;5110856;28;20059;-43
2021/05/04 07:14:35;;;;;;;1.40;0.88;;;22.10;45.80;;;;;;5110577;28;20056;-46
2021/05/04 07:17:01;;;;;;;1.42;1.10;;;22.10;45.80;;;;;;5110268;28;20050;-46
2021/05/04 07:19:29;;;;;;;1.75;1.08;;;22.00;45.60;;;;;;5110304;27;20078;-44
2021/05/04 07:21:56;;;;;;;1.30;1.10;;;22.10;45.70;;;;;;5100752;28;20048;-47
2021/05/04 07:24:24;;;;;;;1.40;1.05;;;22.00;45.60;;;;;;5110302;28;20055;-44
2021/05/04 07:26:51;;;;;;;2.00;1.20;;;22.00;45.60;;;;;;5110056;28;20043;-45
2021/05/04 07:29:18;;;;;;;2.08;1.33;;;22.00;45.60;;;;;;5110675;28;20086;-45
2021/05/04 07:31:45;;;;;;;2.08;1.15;;;22.10;45.60;;;;;;5109892;28;20060;-47
2021/05/04 07:34:12;;;;;;;1.45;0.90;;;22.10;45.60;;;;;;5110558;28;20589;-42
2021/05/04 07:36:38;;;;;;;1.10;1.00;;;22.10;45.60;;;;;;5110038;28;20039;-42
2021/05/04 07:39:05;;;;;;;1.23;1.10;;;22.00;45.50;;;;;;5110295;28;20046;-41
2021/05/04 07:41:34;;;;;;;1.13;1.00;;;22.10;45.60;;;;;;5110804;28;20047;-41
2021/05/04 07:44:01;;;;;;;1.67;1.30;;;22.10;45.60;;;;;;5108524;28;20035;-41
2021/05/04 07:46:28;;;;;;;1.15;1.02;;;22.10;45.60;;;;;;5109045;28;20055;-41
2021/05/04 07:48:56;;;;;;;1.00;0.85;;;22.10;45.60;;;;;;5110649;28;20407;-39
2021/05/04 07:51:36;;;;;;;1.20;1.00;;;22.10;45.60;;;;;;5108849;28;20047;-40
2021/05/04 07:54:04;;;;;;;1.50;1.05;;;22.10;45.50;;;;;;5110807;28;20423;-40
2021/05/04 07:56:30;;;;;;;1.25;0.98;;;22.00;45.40;;;;;;5110601;28;20047;-41
2021/05/04 07:58:57;;;;;;;1.70;1.20;;;22.10;45.50;;;;;;5109662;28;20579;-41
2021/05/04 08:01:23;;;;;;;2.03;1.20;;;22.10;46.10;;;;;;5109823;28;20052;-42
2021/05/04 08:03:50;;;;;;;1.27;0.95;;;22.10;45.40;;;;;;5109170;28;20040;-40
2021/05/04 08:06:17;;;;;;;1.20;1.02;;;22.10;45.40;;;;;;5109659;28;20418;-40
2021/05/04 08:08:44;;;;;;;1.20;1.02;;;22.10;45.40;;;;;;5109354;28;20640;-39
2021/05/04 08:11:10;;;;;;;1.42;1.10;;;22.10;45.40;;;;;;5108845;28;20456;-43
2021/05/04 08:13:37;;;;;;;1.73;1.10;;;22.10;45.40;;;;;;5093986;28;20551;-41
2021/05/04 08:16:07;;;;;;;3.30;1.20;;;22.10;45.30;;;;;;5077958;28;20958;-42
2021/05/04 08:18:35;;;;;;;1.23;1.00;;;22.10;45.30;;;;;;5077316;28;20080;-40
2021/05/04 08:21:01;;;;;;;1.30;0.90;;;22.10;45.30;;;;;;5079675;28;20051;-42
2021/05/04 08:23:28;;;;;;;1.02;0.90;;;22.10;45.30;;;;;;5078790;28;20101;-40
2021/05/04 08:25:55;;;;;;;1.10;0.90;;;22.10;45.30;;;;;;5077424;28;20111;-41
2021/05/04 08:28:22;;;;;;;7.32;0.93;;;22.10;45.20;;;;;;5080448;28;20052;-42
2021/05/04 08:30:51;;;;;;;1.10;0.90;;;22.10;45.20;;;;;;5077977;28;20464;-41
2021/05/04 08:33:18;;;;;;;1.30;1.08;;;22.10;45.20;;;;;;5078440;28;20098;-41
2021/05/04 08:35:45;;;;;;;1.13;1.02;;;22.10;45.20;;;;;;5079190;28;20056;-45
2021/05/04 08:38:13;;;;;;;1.10;0.98;;;22.10;45.20;;;;;;5077678;28;20036;-40
2021/05/04 08:40:40;;;;;;;1.83;1.00;;;22.10;45.20;;;;;;5078693;28;24262;-42
2021/05/04 08:43:07;;;;;;;1.75;1.00;;;22.10;45.20;;;;;;5075872;28;20045;-40
2021/05/04 08:45:35;;;;;;;1.70;1.13;;;22.10;45.20;;;;;;5078569;28;20728;-44
2021/05/04 08:48:04;;;;;;;1.58;1.10;;;22.10;45.20;;;;;;5080077;28;20052;-40
2021/05/04 08:50:36;;;;;;;1.38;1.08;;;22.10;45.20;;;;;;5076527;28;20051;-45
2021/05/04 08:53:03;;;;;;;1.30;1.20;;;22.10;45.10;;;;;;5077977;28;20048;-41
2021/05/04 08:55:29;;;;;;;1.90;1.30;;;22.10;45.10;;;;;;5078690;28;20083;-40
2021/05/04 08:58:02;;;;;;;1.15;0.80;;;22.10;45.10;;;;;;5079347;28;20040;-40
2021/05/04 09:00:51;;;;;;;1.63;0.98;;;22.10;45.10;;;;;;5081363;28;20044;-42
2021/05/04 09:03:21;;;;;;;1.92;1.17;;;22.10;45.10;;;;;;5082504;28;20040;-40
2021/05/04 09:16:52;;;;;;;1.70;1.13;;;22.10;45.00;;;;;;5112216;28;20043;-41
2021/05/04 09:19:36;;;;;;;1.52;1.08;;;22.10;45.00;;;;;;5113704;28;20139;-41
2021/05/04 09:22:03;;;;;;;;;;;22.10;45.10;;;;;;5113416;28;20450;-41
2021/05/04 09:24:39;;;;;;;1.10;1.00;;;22.10;45.00;;;;;;5112771;28;19932;-41
2021/05/04 09:27:10;;;;;;;1.88;1.00;;;22.10;45.00;;;;;;5113326;28;20083;-41
2021/05/04 09:29:59;;;;;;;1.48;0.82;;;22.10;45.00;;;;;;5112235;27;20560;-45
2021/05/04 09:32:46;;;;;;;1.42;1.20;;;22.10;45.00;;;;;;5112215;28;20128;-41
2021/05/04 09:35:13;;;;;;;1.10;1.00;;;22.10;45.00;;;;;;5113483;28;20448;-45
2021/05/04 09:37:43;;;;;;;1.50;1.20;;;22.10;45.00;;;;;;5112869;28;20445;-43
2021/05/04 09:40:28;;;;;;;1.27;1.10;;;22.10;45.00;;;;;;5111626;28;20042;-42
2021/05/04 09:43:11;;;;;;;1.63;1.00;;;22.10;45.00;;;;;;5113177;28;20403;-47
2021/05/04 09:45:49;;;;;;;2.15;1.20;;;22.10;45.00;;;;;;5112534;28;20483;-41
2021/05/04 09:48:38;;;;;;;1.10;1.00;;;22.20;45.10;;;;;;5111050;28;20388;-42
2021/05/04 09:51:11;;;;;;;1.23;0.95;;;22.10;45.00;;;;;;5112307;28;20502;-42
2021/05/04 09:56:35;;;;;;;1.27;1.05;;;22.20;45.00;;;;;;5100803;28;20043;-40
2021/05/04 09:59:03;;;;;;;1.75;1.20;;;22.10;44.90;;;;;;5112938;28;20115;-41
2021/05/04 10:01:31;;;;;;;1.60;1.02;;;22.20;45.00;;;;;;5111787;28;20044;-42
2021/05/04 10:03:58;;;;;;;1.23;1.05;;;22.20;45.10;;;;;;5111987;27;20399;-41
2021/05/04 10:06:25;;;;;;;1.42;0.95;;;22.20;45.00;;;;;;5112403;28;20520;-40
2021/05/04 10:08:52;;;;;;;1.42;1.17;;;22.20;45.00;;;;;;5110862;28;20127;-41
2021/05/04 10:11:21;;;;;;;1.40;1.02;;;22.20;45.00;;;;;;5111962;28;20654;-41
2021/05/04 10:13:58;;;;;;;1.17;1.08;;;22.20;45.00;;;;;;5111763;28;20059;-41
2021/05/04 10:16:30;;;;;;;1.73;1.02;;;22.10;44.90;;;;;;5110024;28;20092;-41
2021/05/04 10:19:05;;;;;;;1.13;1.00;;;22.20;45.10;;;;;;5111135;28;20084;-42
2021/05/04 10:21:33;;;;;;;1.95;0.90;;;22.20;45.00;;;;;;5111969;28;20044;-41
2021/05/04 10:24:00;;;;;;;1.50;1.00;;;22.20;45.00;;;;;;5111027;27;20054;-42
2021/05/04 10:26:30;;;;;;;1.73;1.17;;;22.20;45.00;;;;;;5111627;28;20128;-42
2021/05/04 10:29:05;;;;;;;2.47;1.20;;;22.20;45.00;;;;;;5111526;28;20092;-41
2021/05/04 10:31:37;;;;;;;1.15;0.98;;;22.20;45.00;;;;;;5110588;28;20104;-42
2021/05/04 10:34:23;;;;;;;2.15;1.27;;;22.20;45.00;;;;;;5111590;28;20682;-41
2021/05/04 10:37:12;;;;;;;1.95;1.20;;;22.20;45.00;;;;;;5111302;28;20531;-44
2021/05/04 10:39:44;;;;;;;1.75;1.10;;;22.20;45.00;;;;;;5110557;28;20047;-43
2021/05/04 10:42:36;;;;;;;0.95;0.85;;;22.20;45.10;;;;;;5110520;28;20040;-46
2021/05/04 10:45:04;;;;;;;1.33;1.00;;;22.20;45.00;;;;;;5089831;28;20047;-46
2021/05/04 10:47:42;;;;;;;1.60;1.02;;;22.20;45.00;;;;;;5098131;28;20487;-41
2021/05/04 10:50:22;;;;;;;1.10;1.00;;;22.20;45.00;;;;;;5110222;28;20079;-44
2021/05/04 10:53:10;;;;;;;1.92;1.23;;;22.20;45.00;;;;;;5111442;28;20513;-46
2021/05/04 10:55:51;;;;;;;1.05;0.93;;;22.20;45.00;;;;;;5110672;27;20491;-40
2021/05/04 10:58:19;;;;;;;1.55;1.20;;;22.20;45.00;;;;;;5109830;28;20115;-41
2021/05/04 11:00:51;;;;;;;1.75;1.30;;;22.20;45.00;;;;;;5111194;28;20059;-41
2021/05/04 11:03:30;;;;;;;2.35;1.27;;;22.20;45.10;;;;;;5110052;28;20054;-43
2021/05/04 11:05:58;;;;;;;1.10;1.00;;;22.20;45.10;;;;;;5110282;28;20101;-42
2021/05/04 11:08:44;;;;;;;1.38;0.88;;;22.20;45.00;;;;;;5111001;27;20655;-45
2021/05/04 11:11:26;;;;;;;1.50;1.05;;;22.20;45.10;;;;;;5109689;28;20518;-42
2021/05/04 11:13:58;;;;;;;2.25;1.20;;;22.20;45.10;;;;;;5110179;28;20180;-42
2021/05/04 11:16:41;;;;;;;2.00;1.13;;;22.20;45.40;;;;;;5111138;27;20047;-43
2021/05/04 11:19:16;;;;;;;1.27;1.08;;;22.20;45.10;;;;;;5110803;28;20054;-41
2021/05/04 11:21:48;;;;;;;2.88;0.98;;;22.20;45.10;;;;;;5109101;28;20040;-45
2021/05/04 11:24:16;;;;;;;1.77;1.10;;;22.20;45.10;;;;;;5101124;28;20449;-44
2021/05/04 11:26:53;;;;;;;2.90;1.30;;;22.20;45.10;;;;;;5109986;28;20453;-45
2021/05/04 11:29:22;;;;;;;1.58;1.02;;;22.20;45.10;;;;;;5109615;28;20556;-45
2021/05/04 11:31:51;;;;;;;1.30;1.10;;;22.20;45.20;;;;;;5111209;28;20105;-45
2021/05/04 11:34:43;;;;;;;1.67;1.05;;;22.20;45.20;;;;;;5096218;28;20049;-44
2021/05/04 11:37:36;;;;;;;1.15;0.93;;;22.20;45.20;;;;;;5110370;27;20431;-40
2021/05/04 11:40:05;;;;;;;1.58;1.00;;;22.20;45.20;;;;;;5111805;28;20039;-43
2021/05/04 11:42:40;;;;;;;1.25;1.08;;;22.20;45.30;;;;;;5110088;28;20123;-41
2021/05/04 11:45:14;;;;;;;1.45;1.00;;;22.20;45.30;;;;;;5110141;28;20039;-43
2021/05/04 11:47:56;;;;;;;1.63;0.98;;;22.20;45.30;;;;;;5111120;28;20089;-40
2021/05/04 11:50:26;;;;;;;1.70;1.10;;;22.20;45.30;;;;;;5110013;28;20123;-40
2021/05/04 11:52:56;;;;;;;1.75;0.85;;;22.20;45.30;;;;;;5110441;28;20044;-42
2021/05/04 11:55:26;;;;;;;2.13;1.00;;;22.20;45.30;;;;;;5110305;28;20486;-43
2021/05/04 11:58:04;;;;;;;1.10;0.82;;;22.20;45.20;;;;;;5109623;28;20122;-41
2021/05/04 12:00:36;;;;;;;1.30;1.00;;;22.20;45.20;;;;;;5109206;28;20090;-40
2021/05/04 12:03:13;;;;;;;1.02;0.90;;;22.20;45.20;;;;;;5111059;28;20124;-40
2021/05/04 12:05:42;;;;;;;1.95;1.20;;;22.20;45.20;;;;;;5109327;28;20048;-40
2021/05/04 12:08:09;;;;;;;0.85;0.80;;;22.30;45.30;;;;;;5109730;28;20567;-40
2021/05/04 12:10:38;;;;;;;1.45;1.00;;;22.20;45.20;;;;;;5110346;28;20130;-44
2021/05/04 12:13:09;;;;;;;1.88;0.93;;;22.20;45.10;;;;;;5108712;28;20146;-40
2021/05/04 12:15:38;;;;;;;1.65;1.00;;;22.20;45.20;;;;;;5109743;28;20122;-47
2021/05/04 12:18:14;;;;;;;3.80;1.08;;;22.30;45.30;;;;;;5110396;28;20052;-41
2021/05/04 12:20:45;;;;;;;3.72;0.80;;;22.30;45.20;;;;;;5097299;28;20043;-41
2021/05/04 12:23:33;;;;;;;2.40;1.13;;;22.30;45.20;;;;;;5110023;28;20073;-39
2021/05/04 12:26:07;;;;;;;1.42;1.05;;;22.30;45.20;;;;;;5110198;28;20225;-39
2021/05/04 12:28:39;;;;;;;1.65;0.93;;;22.20;45.10;;;;;;5109144;28;20479;-40
2021/05/04 12:31:10;;;;;;;1.10;0.90;;;22.30;45.20;;;;;;5110103;28;20087;-41
2021/05/04 12:33:39;;;;;;;1.98;1.00;;;22.20;45.10;;;;;;5112547;28;20047;-40
2021/05/04 12:36:12;;;;;;;1.25;0.80;;;22.30;45.20;;;;;;5102365;28;20562;-43
2021/05/04 12:41:19;;;;;;;1.20;0.90;;;22.30;45.20;;;;;;5113194;28;20051;-41
2021/05/04 12:44:25;;;;;;;6.00;1.10;;;22.30;45.20;;;;;;5112186;27;20054;-41
2021/05/04 12:46:57;;;;;;;1.17;0.85;;;22.30;45.20;;;;;;5113720;28;20402;-39
2021/05/04 12:49:52;;;;;;;1.27;1.00;;;22.20;45.10;;;;;;5115039;27;20051;-41
2021/05/04 12:52:19;;;;;;;0.90;0.75;;;22.20;45.10;;;;;;5059320;28;20048;-40
2021/05/04 12:54:48;;;;;;;0.85;0.77;;;22.30;45.20;;;;;;5060944;28;20124;-41
2021/05/04 12:57:19;;;;;;;0.90;0.80;;;22.30;45.20;;;;;;5058025;28;20080;-40
2021/05/04 12:59:46;;;;;;;1.63;1.17;;;22.20;45.10;;;;;;5057265;28;20102;-39
2021/05/04 13:02:31;;;;;;;1.30;0.90;;;22.30;45.20;;;;;;5060798;28;20040;-40
2021/05/04 13:05:00;;;;;;;2.47;1.20;;;22.30;45.20;;;;;;5058908;28;20524;-40
2021/05/04 13:10:31;;;;;;;0.90;0.80;;;22.30;45.20;;;;;;5059625;28;20063;-41
2021/05/04 13:16:47;;;;;;;1.52;0.80;;;22.30;45.10;;;;;;5059308;28;20090;-39
2021/05/04 13:30:29;;;;;;;1.40;0.82;;;22.30;45.20;;;;;;5112691;28;20059;-39
2021/05/04 13:33:04;;;;;;;0.93;0.82;;;22.20;45.10;;;;;;5113020;28;20386;-40
2021/05/04 13:35:35;;;;;;;1.02;0.70;;;22.30;45.20;;;;;;5112023;28;20093;-41